createdAt,value
2023-05-21T02:31:20.301Z,0.857143
2023-05-21T02:32:20.312Z,0.857143
2023-05-21T02:33:20.341Z,0.857143
2023-05-21T02:34:20.640Z,0.857143
2023-05-21T02:35:20.385Z,1.71429
2023-05-21T02:36:20.414Z,1.71429
2023-05-21T02:37:20.438Z,2.5
2023-05-21T02:38:20.472Z,2.5
2023-05-21T02:39:20.500Z,3.35714
2023-05-21T02:40:20.529Z,3.35714
2023-05-21T02:41:20.550Z,4.21429
2023-05-21T02:42:20.583Z,5
2023-05-21T02:43:20.632Z,5.85714
2023-05-21T02:44:20.628Z,6.71429
2023-05-21T02:45:20.651Z,8.35714
2023-05-21T02:46:20.695Z,9.21429
2023-05-21T02:47:20.692Z,10.8571
2023-05-21T02:48:20.710Z,11.7143
2023-05-21T02:49:20.740Z,13.3571
2023-05-21T02:50:20.763Z,15
2023-05-21T02:51:20.767Z,16.7143
2023-05-21T02:52:20.784Z,18.3571
2023-05-21T02:53:20.805Z,20.8571
2023-05-21T02:54:20.827Z,22.5
2023-05-21T02:55:20.853Z,25
2023-05-21T02:56:20.845Z,27.5
2023-05-21T02:57:20.858Z,30
2023-05-21T02:58:20.867Z,32.5
2023-05-21T02:59:20.879Z,35
2023-05-21T03:00:20.879Z,38.3571
2023-05-21T03:01:20.973Z,40.8571
2023-05-21T03:02:20.965Z,44.2143
2023-05-21T03:03:21.111Z,48.3571
2023-05-21T03:04:20.954Z,53.3571
2023-05-21T03:05:20.991Z,56.7143
2023-05-21T03:06:21.016Z,61.7143
2023-05-21T03:07:21.053Z,66.7143
2023-05-21T03:08:21.074Z,71.7143
2023-05-21T03:09:20.093Z,77.5
2023-05-21T03:10:20.131Z,83.3571
2023-05-21T03:11:20.159Z,90
2023-05-21T03:12:20.177Z,95.8571
2023-05-21T03:13:20.256Z,102.5
2023-05-21T03:14:20.230Z,110.857
2023-05-21T03:15:20.242Z,118.357
2023-05-21T03:16:20.274Z,125.857
2023-05-21T03:17:20.291Z,133.357
2023-05-21T03:18:20.335Z,142.5
2023-05-21T03:19:20.356Z,150.857
2023-05-21T03:20:20.354Z,161.714
2023-05-21T03:21:20.354Z,171.714
2023-05-21T03:22:20.389Z,183.357
2023-05-21T03:23:20.386Z,195
2023-05-21T03:24:20.407Z,206.714
2023-05-21T03:25:20.435Z,220
2023-05-21T03:26:20.431Z,233.357
2023-05-21T03:27:20.453Z,247.5
2023-05-21T03:28:20.455Z,261.714
2023-05-21T03:29:20.475Z,278.357
2023-05-21T03:30:20.500Z,294.214
2023-05-21T03:31:20.551Z,310.857
2023-05-21T03:32:20.590Z,329.214
2023-05-21T03:33:20.575Z,345.857
2023-05-21T03:34:20.600Z,363.357
2023-05-21T03:35:20.625Z,380.857
2023-05-21T03:36:20.654Z,398.357
2023-05-21T03:37:20.680Z,415.857
2023-05-21T03:38:20.703Z,434.214
2023-05-21T03:39:20.723Z,451.714
2023-05-21T03:40:20.757Z,470
2023-05-21T03:41:20.919Z,485.857
2023-05-21T03:42:20.800Z,502.5
2023-05-21T03:43:20.818Z,517.5
2023-05-21T03:44:20.836Z,533.357
2023-05-21T03:45:20.859Z,548.357
2023-05-21T03:46:20.904Z,561.714
2023-05-21T03:47:20.970Z,575
2023-05-21T03:48:20.910Z,588.357
2023-05-21T03:49:20.932Z,597.5
2023-05-21T03:50:20.945Z,608.357
2023-05-21T03:51:20.961Z,620
2023-05-21T03:52:20.963Z,634.214
2023-05-21T03:53:20.974Z,653.357
2023-05-21T03:54:20.982Z,671.714
2023-05-21T03:55:20.990Z,690.857
2023-05-21T03:56:21.008Z,716.714
2023-05-21T03:57:21.035Z,742.5
2023-05-21T03:58:21.048Z,769.214
2023-05-21T03:59:21.074Z,792.5
2023-05-21T04:00:20.097Z,820.857
2023-05-21T04:01:20.123Z,859.214
2023-05-21T04:02:20.204Z,898.357
2023-05-21T04:03:20.283Z,942.5
2023-05-21T04:04:20.257Z,981.714
2023-05-21T04:05:20.224Z,1009.21
2023-05-21T04:06:20.335Z,1031.71
2023-05-21T04:07:20.266Z,1055
2023-05-21T04:08:20.295Z,1078.36
2023-05-21T04:09:20.308Z,1099.21
2023-05-21T04:10:20.331Z,1114.21
2023-05-21T04:11:20.344Z,1128.36
2023-05-21T04:12:20.548Z,1148.36
2023-05-21T04:13:20.384Z,1180
2023-05-21T04:14:20.403Z,1218.36
2023-05-21T04:15:20.420Z,1261.71
2023-05-21T04:16:20.478Z,1307.5
2023-05-21T04:17:20.453Z,1357.5
2023-05-21T04:18:20.469Z,1375
2023-05-21T04:19:20.546Z,1386.71
2023-05-21T04:20:20.484Z,1430.86
2023-05-21T04:21:20.489Z,1483.36
2023-05-21T04:22:20.488Z,1513.36
2023-05-21T04:23:20.510Z,1533.36
2023-05-21T04:24:20.548Z,1577.5
2023-05-21T04:25:20.564Z,1625.86
2023-05-21T04:26:20.585Z,1657.5
2023-05-21T04:27:20.613Z,1685.86
2023-05-21T04:28:20.635Z,1734.21
2023-05-21T04:29:20.654Z,1799.21
2023-05-21T04:30:20.680Z,1845
2023-05-21T04:31:20.713Z,1883.36
2023-05-21T04:32:20.773Z,1911.71
2023-05-21T04:33:20.760Z,1943.36
2023-05-21T04:34:20.793Z,1990
2023-05-21T04:35:20.804Z,2018.36
2023-05-21T04:36:20.827Z,2030.86
2023-05-21T04:37:20.858Z,2056.71
2023-05-21T04:38:20.878Z,2083.36
2023-05-21T04:39:20.892Z,2099.21
2023-05-21T04:40:20.927Z,2126.71
2023-05-21T04:41:20.927Z,2150
2023-05-21T04:42:20.959Z,2180.86
2023-05-21T04:43:20.974Z,2211.71
2023-05-21T04:44:20.997Z,2220.86
2023-05-21T04:45:21.006Z,2254.21
2023-05-21T04:46:21.047Z,2290
2023-05-21T04:47:21.059Z,2342.5
2023-05-21T04:48:21.041Z,2361.71
2023-05-21T04:49:21.058Z,2381.71
2023-05-21T04:50:21.051Z,2437.5
2023-05-21T04:51:21.080Z,2462.5
2023-05-21T04:52:20.114Z,2480.86
2023-05-21T04:53:20.132Z,2510.86
2023-05-21T04:54:20.163Z,2538.36
2023-05-21T04:55:20.184Z,2518.36
2023-05-21T04:56:20.242Z,2508.36
2023-05-21T04:57:20.238Z,2528.36
2023-05-21T04:58:20.269Z,2647.5
2023-05-21T04:59:20.282Z,2756.71
2023-05-21T05:00:20.317Z,2845.86
2023-05-21T05:01:20.520Z,2927.5
2023-05-21T05:02:20.362Z,2989.21
2023-05-21T05:03:20.643Z,3027.5
2023-05-21T05:04:20.429Z,3029.21
2023-05-21T05:05:20.427Z,2996.71
2023-05-21T05:06:20.454Z,2984.21
2023-05-21T05:07:20.463Z,2975.86
2023-05-21T05:08:20.496Z,2966.71
2023-05-21T05:09:20.510Z,2970.86
2023-05-21T05:10:20.528Z,2975.86
2023-05-21T05:11:20.541Z,2980
2023-05-21T05:12:20.568Z,2967.5
2023-05-21T05:13:20.572Z,2929.21
2023-05-21T05:14:20.577Z,2961.71
2023-05-21T05:15:20.620Z,2997.5
2023-05-21T05:16:20.649Z,3012.5
2023-05-21T05:17:20.614Z,3084.21
2023-05-21T05:18:20.624Z,3165.86
2023-05-21T05:19:20.699Z,3188.36
2023-05-21T05:20:20.680Z,3131.71
2023-05-21T05:21:20.718Z,3116.71
2023-05-21T05:22:20.747Z,3072.5
2023-05-21T05:23:20.764Z,2978.36
2023-05-21T05:24:20.795Z,2995.86
2023-05-21T05:25:20.821Z,3054.21
2023-05-21T05:26:20.832Z,3155
2023-05-21T05:27:20.866Z,3303.36
2023-05-21T05:28:20.899Z,3368.36
2023-05-21T05:29:20.906Z,3345.86
2023-05-21T05:30:20.913Z,3326.71
2023-05-21T05:31:20.998Z,3340
2023-05-21T05:32:21.031Z,3398.36
2023-05-21T05:33:21.030Z,3435.86
2023-05-21T05:34:21.043Z,3454.21
2023-05-21T05:35:21.070Z,3448.36
2023-05-21T05:36:21.076Z,3454.21
2023-05-21T05:37:21.083Z,3450.86
2023-05-21T05:38:20.102Z,3414.21
2023-05-21T05:39:20.149Z,3398.36
2023-05-21T05:40:20.141Z,3421.71
2023-05-21T05:41:20.152Z,3465
2023-05-21T05:42:20.159Z,3510.86
2023-05-21T05:43:20.170Z,3545.86
2023-05-21T05:44:20.172Z,3558.36
2023-05-21T05:45:20.182Z,3556.71
2023-05-21T05:46:20.233Z,3517.5
2023-05-21T05:47:20.229Z,3500.86
2023-05-21T05:48:20.252Z,3487.5
2023-05-21T05:49:20.265Z,3465
2023-05-21T05:50:20.315Z,3453.36
2023-05-21T05:51:20.321Z,3465
2023-05-21T05:52:20.349Z,3454.21
2023-05-21T05:53:20.375Z,3438.36
2023-05-21T05:54:20.397Z,3417.5
2023-05-21T05:55:20.461Z,3468.36
2023-05-21T05:56:20.459Z,3467.5
2023-05-21T05:57:20.476Z,3466.71
2023-05-21T05:58:20.512Z,3347.5
2023-05-21T05:59:20.515Z,3194.21
2023-05-21T06:00:20.551Z,3125.86
2023-05-21T06:01:20.575Z,3065
2023-05-21T06:02:20.665Z,3032.5
2023-05-21T06:03:20.731Z,2980.86
2023-05-21T06:04:20.692Z,2910.86
2023-05-21T06:05:20.670Z,2819.21
2023-05-21T06:06:20.824Z,2765
2023-05-21T06:07:20.705Z,2743.36
2023-05-21T06:08:20.728Z,2741.71
2023-05-21T06:09:20.704Z,2731.71
2023-05-21T06:10:20.827Z,2726.71
2023-05-21T06:11:20.727Z,2732.5
2023-05-21T06:12:20.724Z,2740
2023-05-21T06:13:20.748Z,2768.36
2023-05-21T06:14:20.809Z,2807.5
2023-05-21T06:15:20.802Z,2860.86
2023-05-21T06:16:20.853Z,2930.86
2023-05-21T06:17:20.856Z,3024.21
2023-05-21T06:18:20.880Z,3122.5
2023-05-21T06:19:20.978Z,3221.71
2023-05-21T06:20:20.994Z,3322.5
2023-05-21T06:21:20.947Z,3437.5
2023-05-21T06:22:22.442Z,3528.36
2023-05-21T06:23:20.989Z,3599.21
2023-05-21T06:24:21.007Z,3635
2023-05-21T06:25:21.042Z,3655
2023-05-21T06:26:21.045Z,3702.5
2023-05-21T06:27:21.089Z,3755.86
2023-05-21T06:28:21.085Z,3781.71
2023-05-21T06:29:20.111Z,3755.86
2023-05-21T06:30:20.124Z,3761.71
2023-05-21T06:31:20.143Z,3761.71
2023-05-21T06:32:20.179Z,3752.5
2023-05-21T06:33:20.315Z,3776.71
2023-05-21T06:34:20.193Z,3823.36
2023-05-21T06:35:20.207Z,3900
2023-05-21T06:36:20.217Z,3983.36
2023-05-21T06:37:20.218Z,4075.86
2023-05-21T06:38:20.225Z,4160.86
2023-05-21T06:39:20.255Z,4300.86
2023-05-21T06:40:20.245Z,4397.5
2023-05-21T06:41:20.290Z,4497.5
2023-05-21T06:42:20.300Z,4673.36
2023-05-21T06:43:20.328Z,4800.86
2023-05-21T06:44:20.374Z,4981.71
2023-05-21T06:45:20.388Z,5552.5
2023-05-21T06:46:20.442Z,6072.5
2023-05-21T06:47:20.436Z,6550.86
2023-05-21T06:48:20.457Z,7155.86
2023-05-21T06:49:20.490Z,8632.5
2023-05-21T06:50:20.509Z,9671.71
2023-05-21T06:51:20.536Z,10883.4
2023-05-21T06:52:20.537Z,12046.7
2023-05-21T06:53:20.565Z,12255.9
2023-05-21T06:54:20.596Z,12097.5
2023-05-21T06:55:20.599Z,11841.7
2023-05-21T06:56:20.619Z,12266.7
2023-05-21T06:57:20.628Z,12152.5
2023-05-21T06:58:20.681Z,11950.9
2023-05-21T06:59:20.657Z,11869.2
2023-05-21T07:00:20.678Z,11895.9
2023-05-21T07:01:20.727Z,12033.4
2023-05-21T07:02:20.739Z,12067.5
2023-05-21T07:03:20.835Z,11984.2
2023-05-21T07:04:20.717Z,12044.2
2023-05-21T07:05:20.755Z,11896.7
2023-05-21T07:06:20.768Z,11766.7
2023-05-21T07:07:20.801Z,12011.7
2023-05-21T07:08:20.821Z,11981.7
2023-05-21T07:09:20.846Z,12100.9
2023-05-21T07:10:20.877Z,11626.7
2023-05-21T07:11:20.912Z,11872.5
2023-05-21T07:12:20.924Z,12011.7
2023-05-21T07:13:20.956Z,12251.7
2023-05-21T07:14:20.988Z,12316.7
2023-05-21T07:15:21.028Z,12288.4
2023-05-21T07:16:21.074Z,12323.4
2023-05-21T07:17:21.081Z,12192.5
2023-05-21T07:18:21.082Z,12173.4
2023-05-21T07:19:20.144Z,12425.9
2023-05-21T07:20:20.126Z,12519.2
2023-05-21T07:21:20.144Z,12669.2
2023-05-21T07:22:20.160Z,12860.9
2023-05-21T07:23:20.184Z,12848.4
2023-05-21T07:24:20.197Z,12790
2023-05-21T07:25:20.208Z,13000
2023-05-21T07:26:20.237Z,13161.7
2023-05-21T07:27:25.833Z,13290.9
2023-05-21T07:28:20.257Z,13231.7
2023-05-21T07:29:20.290Z,13317.5
2023-05-21T07:30:20.326Z,13410
2023-05-21T07:31:20.382Z,13586.7
2023-05-21T07:32:20.313Z,13937.5
2023-05-21T07:33:20.322Z,14491.7
2023-05-21T07:34:20.358Z,15522.5
2023-05-21T07:35:20.398Z,17222.5
2023-05-21T07:36:20.397Z,18190.9
2023-05-21T07:37:20.440Z,20720.9
2023-05-21T07:38:20.449Z,22325.9
2023-05-21T07:39:20.477Z,23306.7
2023-05-21T07:40:20.497Z,23635.9
2023-05-21T07:41:20.522Z,23770
2023-05-21T07:42:20.558Z,23045
2023-05-21T07:43:20.569Z,23725
2023-05-21T07:44:20.590Z,23846.7
2023-05-21T07:45:20.634Z,23818.4
2023-05-21T07:46:20.692Z,23463.4
2023-05-21T07:47:20.707Z,22993.4
2023-05-21T07:48:20.698Z,23264.2
2023-05-21T07:49:20.722Z,23143.4
2023-05-21T07:50:20.739Z,23328.4
2023-05-21T07:51:20.763Z,22639.2
2023-05-21T07:52:20.866Z,22389.2
2023-05-21T07:53:20.801Z,20529.2
2023-05-21T07:54:20.814Z,15725.9
2023-05-21T07:55:20.838Z,11825
2023-05-21T07:56:20.836Z,8495
2023-05-21T07:57:20.857Z,8443.36
2023-05-21T07:58:20.884Z,9422.5
2023-05-21T07:59:20.877Z,16809.2
2023-05-21T08:00:20.906Z,21791.7
2023-05-21T08:01:20.903Z,21990
2023-05-21T08:02:21.020Z,20570
2023-05-21T08:03:21.117Z,20116.7
2023-05-21T08:04:21.055Z,19710.9
2023-05-21T08:05:20.993Z,19847.5
2023-05-21T08:06:21.019Z,19855
2023-05-21T08:07:21.042Z,19065.9
2023-05-21T08:08:21.077Z,18773.4
2023-05-21T08:09:20.094Z,18882.5
2023-05-21T08:10:20.118Z,19305.9
2023-05-21T08:11:20.148Z,20250.9
2023-05-21T08:12:20.171Z,22952.5
2023-05-21T08:13:20.212Z,25471.7
2023-05-21T08:14:20.224Z,27408.4
2023-05-21T08:15:20.230Z,28713.4
2023-05-21T08:16:20.272Z,30392.5
2023-05-21T08:17:20.368Z,32115.9
2023-05-21T08:18:20.283Z,33642.5
2023-05-21T08:19:20.361Z,35278.4
2023-05-21T08:20:20.326Z,36148.4
2023-05-21T08:21:20.344Z,36320
2023-05-21T08:22:20.349Z,36961.7
2023-05-21T08:23:20.373Z,35299.2
2023-05-21T08:24:20.378Z,34390
2023-05-21T08:25:20.379Z,32858.4
2023-05-21T08:26:20.382Z,28693.4
2023-05-21T08:27:20.396Z,20640
2023-05-21T08:28:20.435Z,12996.7
2023-05-21T08:29:20.468Z,19185
2023-05-21T08:30:20.539Z,20897.5
2023-05-21T08:31:20.548Z,20217.5
2023-05-21T08:32:20.557Z,35173.4
2023-05-21T08:33:21.521Z,36543.4
2023-05-21T08:34:20.593Z,37050
2023-05-21T08:35:20.599Z,37874.2
2023-05-21T08:36:20.634Z,34624.2
2023-05-21T08:37:20.655Z,34465
2023-05-21T08:38:20.681Z,35010.9
2023-05-21T08:39:20.708Z,36152.5
2023-05-21T08:40:20.836Z,31220
2023-05-21T08:41:20.755Z,30610
2023-05-21T08:42:35.174Z,28916.7
2023-05-21T08:43:20.803Z,26591.7
2023-05-21T08:44:20.823Z,28305.9
2023-05-21T08:45:20.860Z,32580.9
2023-05-21T08:46:20.892Z,28915
2023-05-21T08:47:20.918Z,21679.2
2023-05-21T08:48:20.909Z,16412.5
2023-05-21T08:49:20.948Z,8677.5
2023-05-21T08:50:20.958Z,9857.5
2023-05-21T08:51:20.961Z,12574.2
2023-05-21T08:52:20.988Z,10624.2
2023-05-21T08:53:28.057Z,9000
2023-05-21T08:54:20.994Z,6684.21
2023-05-21T08:55:21.011Z,6437.5
2023-05-21T08:56:21.004Z,6255.86
2023-05-21T08:57:21.023Z,6149.21
2023-05-21T08:58:21.060Z,5991.71
2023-05-21T08:59:21.094Z,5831.71
2023-05-21T09:00:20.173Z,5603.36
2023-05-21T09:01:20.348Z,5480.86
2023-05-21T09:02:20.159Z,5316.71
2023-05-21T09:03:20.298Z,5182.5
2023-05-21T09:04:21.643Z,5115.86
2023-05-21T09:05:20.241Z,5105
2023-05-21T09:06:20.276Z,5113.36
2023-05-21T09:07:20.301Z,5113.36
2023-05-21T09:08:20.333Z,5051.71
2023-05-21T09:09:20.337Z,4978.36
2023-05-21T09:10:20.492Z,4891.71
2023-05-21T09:11:20.399Z,4839.21
2023-05-21T09:12:20.422Z,4843.36
2023-05-21T09:13:20.445Z,4748.36
2023-05-21T09:14:20.458Z,4680
2023-05-21T09:15:20.484Z,4608.36
2023-05-21T09:16:20.522Z,4610
2023-05-21T09:17:20.535Z,4654.21
2023-05-21T09:18:20.534Z,4762.5
2023-05-21T09:19:20.615Z,4765.86
2023-05-21T09:20:20.673Z,4648.36
2023-05-21T09:21:20.561Z,4540
2023-05-21T09:22:20.569Z,4494.21
2023-05-21T09:23:20.581Z,4425
2023-05-21T09:24:20.591Z,4500
2023-05-21T09:25:20.614Z,4645
2023-05-21T09:26:20.616Z,4871.71
2023-05-21T09:27:20.652Z,5080
2023-05-21T09:28:20.675Z,5198.36
2023-05-21T09:29:20.698Z,5223.36
2023-05-21T09:30:25.285Z,5045.86
2023-05-21T09:31:20.806Z,4778.36
2023-05-21T09:32:20.775Z,4510
2023-05-21T09:33:20.795Z,4328.36
2023-05-21T09:34:20.826Z,4105
2023-05-21T09:35:20.855Z,3915
2023-05-21T09:36:20.870Z,3801.71
2023-05-21T09:37:27.534Z,3750
2023-05-21T09:38:20.923Z,3711.71
2023-05-21T09:39:20.938Z,3675.86
2023-05-21T09:40:20.961Z,3647.5
2023-05-21T09:41:22.174Z,3633.36
2023-05-21T09:42:21.009Z,3612.5
2023-05-21T09:43:21.045Z,3549.21
2023-05-21T09:44:21.050Z,3493.36
2023-05-21T09:45:21.147Z,3445
2023-05-21T09:46:21.145Z,3419.21
2023-05-21T09:47:20.196Z,3417.5
2023-05-21T09:48:20.116Z,3397.5
2023-05-21T09:49:20.128Z,3373.36
2023-05-21T09:50:20.175Z,3386.71
2023-05-21T09:51:20.146Z,3401.71
2023-05-21T09:52:20.161Z,3471.71
2023-05-21T09:53:20.157Z,3466.71
2023-05-21T09:54:20.195Z,3466.71
2023-05-21T09:55:20.238Z,3460
2023-05-21T09:56:20.248Z,3479.21
2023-05-21T09:57:20.263Z,3495
2023-05-21T09:58:20.280Z,3569.21
2023-05-21T09:59:20.316Z,3657.5
2023-05-21T10:00:20.370Z,3774.21
2023-05-21T10:01:20.419Z,3905
2023-05-21T10:02:20.545Z,4065
2023-05-21T10:03:20.493Z,4130.86
2023-05-21T10:04:20.531Z,4215
2023-05-21T10:05:20.491Z,4278.36
2023-05-21T10:06:20.519Z,4360
2023-05-21T10:07:20.547Z,4460
2023-05-21T10:08:20.591Z,4440
2023-05-21T10:09:20.630Z,4473.36
2023-05-21T10:10:20.640Z,4582.5
2023-05-21T10:11:20.666Z,4607.5
2023-05-21T10:12:20.680Z,4559.21
2023-05-21T10:13:20.704Z,4401.71
2023-05-21T10:14:20.742Z,4222.5
2023-05-21T10:15:20.775Z,4009.21
2023-05-21T10:16:20.812Z,3879.21
2023-05-21T10:17:20.833Z,3699.21
2023-05-21T10:18:20.821Z,3445.86
2023-05-21T10:19:20.858Z,3332.5
2023-05-21T10:20:20.897Z,3195
2023-05-21T10:21:20.897Z,3147.5
2023-05-21T10:22:20.918Z,3100
2023-05-21T10:23:20.953Z,3133.36
2023-05-21T10:24:20.970Z,3208.36
2023-05-21T10:25:20.975Z,3260.86
2023-05-21T10:26:20.994Z,3311.71
2023-05-21T10:27:21.013Z,3357.5
2023-05-21T10:28:21.034Z,3381.71
2023-05-21T10:29:21.041Z,3381.71
2023-05-21T10:30:21.050Z,3366.71
2023-05-21T10:31:21.062Z,3373.36
2023-05-21T10:32:21.135Z,3430.86
2023-05-21T10:33:21.099Z,3535
2023-05-21T10:34:20.146Z,3665.86
2023-05-21T10:35:20.156Z,3802.5
2023-05-21T10:36:20.180Z,3935.86
2023-05-21T10:37:20.181Z,4013.36
2023-05-21T10:38:20.213Z,4016.71
2023-05-21T10:39:20.239Z,4020
2023-05-21T10:40:20.264Z,4055
2023-05-21T10:41:20.280Z,4087.5
2023-05-21T10:42:20.314Z,4147.5
2023-05-21T10:43:20.335Z,4200
2023-05-21T10:44:20.356Z,4266.71
2023-05-21T10:45:20.371Z,4343.36
2023-05-21T10:46:20.508Z,4437.5
2023-05-21T10:47:20.420Z,4569.21
2023-05-21T10:48:20.498Z,4702.5
2023-05-21T10:49:20.465Z,4839.21
2023-05-21T10:50:20.484Z,4950
2023-05-21T10:51:20.506Z,5044.21
2023-05-21T10:52:20.524Z,5122.5
2023-05-21T10:53:20.531Z,5181.71
2023-05-21T10:54:20.532Z,5226.71
2023-05-21T10:55:20.553Z,5242.5
2023-05-21T10:56:20.577Z,5230
2023-05-21T10:57:20.575Z,5192.5
2023-05-21T10:58:20.575Z,5131.71
2023-05-21T10:59:20.593Z,5020.86
2023-05-21T11:00:20.592Z,4895.86
2023-05-21T11:01:20.668Z,4767.5
2023-05-21T11:02:20.747Z,4640
2023-05-21T11:03:20.866Z,4517.5
2023-05-21T11:04:20.708Z,4395.86
2023-05-21T11:05:20.733Z,4275.86
2023-05-21T11:06:20.784Z,4166.71
2023-05-21T11:07:20.805Z,4078.36
2023-05-21T11:08:20.828Z,3936.71
2023-05-21T11:09:20.846Z,3857.5
2023-05-21T11:10:20.883Z,3792.5
2023-05-21T11:11:20.908Z,3742.5
2023-05-21T11:12:20.927Z,3705
2023-05-21T11:13:20.970Z,3675.86
2023-05-21T11:14:20.985Z,3637.5
2023-05-21T11:15:21.011Z,3637.5
2023-05-21T11:16:21.056Z,3640.86
2023-05-21T11:17:21.102Z,3625
2023-05-21T11:18:21.068Z,3605.86
2023-05-21T11:19:20.155Z,3585.86
2023-05-21T11:20:20.121Z,3563.36
2023-05-21T11:21:20.152Z,3563.36
2023-05-21T11:22:20.180Z,3580.86
2023-05-21T11:23:20.188Z,3622.5
2023-05-21T11:24:20.198Z,3654.21
2023-05-21T11:25:20.231Z,3700.86
2023-05-21T11:26:20.229Z,3752.5
2023-05-21T11:27:20.249Z,3798.36
2023-05-21T11:28:20.255Z,3821.71
2023-05-21T11:29:20.257Z,3800.86
2023-05-21T11:30:20.268Z,3777.5
2023-05-21T11:31:20.333Z,3769.21
2023-05-21T11:32:20.296Z,3756.71
2023-05-21T11:33:20.332Z,3711.71
2023-05-21T11:34:20.348Z,3677.5
2023-05-21T11:35:20.379Z,3677.5
2023-05-21T11:36:20.402Z,3697.5
2023-05-21T11:37:20.429Z,3717.5
2023-05-21T11:38:20.464Z,3727.5
2023-05-21T11:39:20.590Z,3704.21
2023-05-21T11:40:20.525Z,3670
2023-05-21T11:41:20.586Z,3629.21
2023-05-21T11:42:20.589Z,3628.36
2023-05-21T11:43:20.637Z,3629.21
2023-05-21T11:44:20.618Z,3609.21
2023-05-21T11:45:20.657Z,3578.36
2023-05-21T11:46:20.727Z,3578.36
2023-05-21T11:47:20.732Z,3550.86
2023-05-21T11:48:20.718Z,3494.21
2023-05-21T11:49:20.736Z,3438.36
2023-05-21T11:50:20.847Z,3390
2023-05-21T11:51:20.792Z,3349.21
2023-05-21T11:52:20.806Z,3285.86
2023-05-21T11:53:20.835Z,3220.86
2023-05-21T11:54:20.848Z,3170.86
2023-05-21T11:55:20.873Z,3100
2023-05-21T11:56:20.910Z,3051.71
2023-05-21T11:57:20.919Z,3012.5
2023-05-21T11:58:20.931Z,2959.21
2023-05-21T11:59:20.922Z,2885.86
2023-05-21T12:00:20.937Z,2866.71
2023-05-21T12:01:20.951Z,2880.86
2023-05-21T12:02:21.046Z,2885.86
2023-05-21T12:03:21.030Z,2888.36
2023-05-21T12:04:20.972Z,2895.86
2023-05-21T12:05:21.004Z,2930
2023-05-21T12:06:21.029Z,2965
2023-05-21T12:07:21.047Z,3022.5
2023-05-21T12:08:21.071Z,3100
2023-05-21T12:09:20.090Z,3226.71
2023-05-21T12:10:20.120Z,3360
2023-05-21T12:11:20.149Z,3455.86
2023-05-21T12:12:20.185Z,3530.86
2023-05-21T12:13:20.184Z,3570.86
2023-05-21T12:14:20.254Z,3585
2023-05-21T12:15:20.236Z,3601.71
2023-05-21T12:16:20.270Z,3604.21
2023-05-21T12:17:20.279Z,3596.71
2023-05-21T12:18:20.315Z,3581.71
2023-05-21T12:19:20.349Z,3540.86
2023-05-21T12:20:20.330Z,3525.86
2023-05-21T12:21:20.354Z,3495.86
2023-05-21T12:22:20.385Z,3441.71
2023-05-21T12:23:20.408Z,3389.21
2023-05-21T12:24:20.423Z,3335
2023-05-21T12:25:20.502Z,3269.21
2023-05-21T12:26:20.446Z,3215
2023-05-21T12:27:20.456Z,3179.21
2023-05-21T12:28:20.472Z,3172.5
2023-05-21T12:29:20.482Z,3187.5
2023-05-21T12:30:20.494Z,3208.36
2023-05-21T12:31:20.516Z,3232.5
2023-05-21T12:32:20.555Z,3174.21
2023-05-21T12:33:21.645Z,3148.36
2023-05-21T12:34:20.563Z,3089.21
2023-05-21T12:35:20.612Z,3025
2023-05-21T12:36:20.613Z,2947.5
2023-05-21T12:37:20.669Z,2910
2023-05-21T12:38:20.671Z,2815.86
2023-05-21T12:39:20.701Z,2725
2023-05-21T12:40:20.748Z,2733.36
2023-05-21T12:41:20.746Z,2732.5
2023-05-21T12:42:20.781Z,2710.86
2023-05-21T12:43:20.792Z,2695
2023-05-21T12:44:20.818Z,2702.5
2023-05-21T12:45:21.075Z,2739.21
2023-05-21T12:46:20.888Z,2705
2023-05-21T12:47:20.912Z,2676.71
2023-05-21T12:48:20.998Z,2648.36
2023-05-21T12:49:20.945Z,2619.21
2023-05-21T12:50:21.050Z,2560.86
2023-05-21T12:51:20.974Z,2490
2023-05-21T12:52:21.002Z,2428.36
2023-05-21T12:53:21.030Z,2337.5
2023-05-21T12:54:21.030Z,2257.5
2023-05-21T12:55:21.068Z,2200.86
2023-05-21T12:56:21.054Z,2153.36
2023-05-21T12:57:21.170Z,2102.5
2023-05-21T12:58:21.065Z,2073.36
2023-05-21T12:59:21.074Z,2060
2023-05-21T13:00:21.086Z,2070.86
2023-05-21T13:01:20.132Z,2090
2023-05-21T13:02:20.137Z,2138.36
2023-05-21T13:03:20.196Z,2219.21
2023-05-21T13:04:20.240Z,2342.5
2023-05-21T13:05:20.268Z,2558.36
2023-05-21T13:06:20.229Z,2774.21
2023-05-21T13:07:20.251Z,2821.71
2023-05-21T13:08:20.273Z,2727.5
2023-05-21T13:09:20.307Z,2614.21
2023-05-21T13:10:20.327Z,2448.36
2023-05-21T13:11:20.349Z,2352.5
2023-05-21T13:12:20.361Z,2325.86
2023-05-21T13:13:20.396Z,2311.71
2023-05-21T13:14:20.405Z,2301.71
2023-05-21T13:15:20.453Z,2340.86
2023-05-21T13:16:20.478Z,2427.5
2023-05-21T13:17:20.478Z,2519.21
2023-05-21T13:18:20.511Z,2607.5
2023-05-21T13:19:20.546Z,2733.36
2023-05-21T13:20:20.512Z,2859.21
2023-05-21T13:21:20.490Z,2887.5
2023-05-21T13:22:20.497Z,2826.71
2023-05-21T13:23:20.507Z,2744.21
2023-05-21T13:24:20.537Z,2548.36
2023-05-21T13:25:20.584Z,2492.5
2023-05-21T13:26:20.590Z,2473.36
2023-05-21T13:27:20.613Z,2432.5
2023-05-21T13:28:20.629Z,2441.71
2023-05-21T13:29:20.653Z,2503.36
2023-05-21T13:30:20.680Z,2592.5
2023-05-21T13:31:20.700Z,2610
2023-05-21T13:32:20.776Z,2536.71
2023-05-21T13:33:20.824Z,2508.36
2023-05-21T13:34:20.779Z,2463.36
2023-05-21T13:35:20.796Z,2464.21
2023-05-21T13:36:20.826Z,2486.71
2023-05-21T13:37:20.863Z,2518.36
2023-05-21T13:38:20.873Z,2393.36
2023-05-21T13:39:20.911Z,2192.5
2023-05-21T13:40:20.927Z,2158.36
2023-05-21T13:41:20.946Z,2170
2023-05-21T13:42:20.958Z,2228.36
2023-05-21T13:43:20.979Z,2324.21
2023-05-21T13:44:20.998Z,2455.86
2023-05-21T13:45:21.025Z,2640
2023-05-21T13:46:21.058Z,2763.36
2023-05-21T13:47:21.028Z,2895
2023-05-21T13:48:21.125Z,2886.71
2023-05-21T13:49:21.061Z,2799.21
2023-05-21T13:50:21.069Z,2735
2023-05-21T13:51:37.509Z,2743.36
2023-05-21T13:52:21.088Z,2760.86
2023-05-21T13:53:20.107Z,2768.36
2023-05-21T13:54:20.134Z,2755.86
2023-05-21T13:55:20.171Z,2705.86
2023-05-21T13:56:20.184Z,2643.36
2023-05-21T13:57:20.213Z,2575
2023-05-21T13:58:20.228Z,2501.71
2023-05-21T13:59:20.261Z,2430
2023-05-21T14:00:20.270Z,2375.86
2023-05-21T14:01:20.325Z,2309.21
2023-05-21T14:02:20.337Z,2259.21
2023-05-21T14:03:20.389Z,2209.21
2023-05-21T14:04:20.345Z,2199.21
2023-05-21T14:05:20.367Z,2307.5
2023-05-21T14:06:20.380Z,2235
2023-05-21T14:07:20.404Z,2115.86
2023-05-21T14:08:20.423Z,2098.36
2023-05-21T14:09:20.410Z,2103.36
2023-05-21T14:10:20.430Z,2120
2023-05-21T14:11:20.430Z,2230.86
2023-05-21T14:12:20.435Z,2445.86
2023-05-21T14:13:20.565Z,2503.36
2023-05-21T14:14:20.472Z,2372.5
2023-05-21T14:15:20.503Z,2346.71
2023-05-21T14:16:20.565Z,2407.5
2023-05-21T14:17:20.556Z,2462.5
2023-05-21T14:18:20.586Z,2522.5
2023-05-21T14:19:20.703Z,2577.5
2023-05-21T14:20:20.635Z,2615
2023-05-21T14:21:20.667Z,2634.21
2023-05-21T14:22:20.697Z,2651.71
2023-05-21T14:23:20.709Z,2656.71
2023-05-21T14:24:20.741Z,2655.86
2023-05-21T14:25:20.761Z,2645.86
2023-05-21T14:26:20.768Z,2625
2023-05-21T14:27:20.785Z,2660.86
2023-05-21T14:28:20.814Z,2560.86
2023-05-21T14:29:20.838Z,2552.5
2023-05-21T14:30:20.872Z,2502.5
2023-05-21T14:31:20.866Z,2419.21
2023-05-21T14:32:20.929Z,2340.86
2023-05-21T14:33:20.897Z,2256.71
2023-05-21T14:34:20.928Z,2200.86
2023-05-21T14:35:20.965Z,2153.36
2023-05-21T14:36:20.930Z,2078.36
2023-05-21T14:37:20.937Z,2019.21
2023-05-21T14:38:20.935Z,1959.21
2023-05-21T14:39:20.982Z,1913.36
2023-05-21T14:40:21.009Z,1876.71
2023-05-21T14:41:21.018Z,1850.86
2023-05-21T14:42:21.059Z,1835
2023-05-21T14:43:21.064Z,1824.21
2023-05-21T14:44:21.084Z,1840.86
2023-05-21T14:45:20.102Z,1913.36
2023-05-21T14:46:20.236Z,1948.36
2023-05-21T14:47:20.315Z,1944.21
2023-05-21T14:48:20.170Z,1984.21
2023-05-21T14:49:20.207Z,2026.71
2023-05-21T14:50:20.223Z,2055.86
2023-05-21T14:51:20.204Z,2074.21